createdAt,value
2022-12-31T00:02:28.815Z,102316.81
2022-12-31T00:12:40.064Z,102318.78
2022-12-31T00:17:44.673Z,102312.94
2022-12-31T00:22:49.638Z,102322.41
2022-12-31T00:27:55.785Z,102330.91
2022-12-31T00:33:00.931Z,102327.56
2022-12-31T00:38:06.127Z,102330.41
2022-12-31T00:43:10.638Z,102324.72
2022-12-31T00:48:17.195Z,102330.97
2022-12-31T00:53:21.819Z,102336.34
2022-12-31T00:58:26.903Z,102348.50
2022-12-31T01:03:31.903Z,102347.84
2022-12-31T01:08:37.012Z,102338.63
2022-12-31T01:13:41.497Z,102347.28
2022-12-31T01:18:46.937Z,102351.72
2022-12-31T01:23:52.150Z,102355.25
2022-12-31T01:28:57.643Z,102360.50
2022-12-31T01:34:02.828Z,102375.19
2022-12-31T01:39:11.637Z,102369.31
2022-12-31T01:44:28.923Z,102369.41
2022-12-31T01:49:48.547Z,102372.03
2022-12-31T01:55:01.329Z,102370.41
2022-12-31T02:00:08.092Z,102375.56
2022-12-31T02:05:23.684Z,102380.69
2022-12-31T02:10:28.935Z,102385.81
2022-12-31T02:15:50.687Z,102364.34
2022-12-31T02:21:01.648Z,102379.69
2022-12-31T02:26:37.703Z,102368.47
2022-12-31T02:31:53.867Z,102355.47
2022-12-31T02:37:03.904Z,102347.63
2022-12-31T02:42:08.913Z,102352.63
2022-12-31T02:47:48.714Z,102345.56
2022-12-31T02:53:11.493Z,102331.53
2022-12-31T02:58:23.185Z,102343.28
2022-12-31T03:03:29.533Z,102331.00
2022-12-31T03:08:54.029Z,102329.00
2022-12-31T03:13:58.866Z,102323.53
2022-12-31T03:19:32.547Z,102308.59
2022-12-31T03:24:55.228Z,102310.09
2022-12-31T03:29:59.941Z,102306.38
2022-12-31T03:35:05.960Z,102293.22
2022-12-31T03:40:12.770Z,102269.69
2022-12-31T03:45:18.771Z,102259.97
2022-12-31T03:50:23.481Z,102247.50
2022-12-31T03:55:29.388Z,102251.31
2022-12-31T04:00:34.120Z,102219.66
2022-12-31T04:05:38.915Z,102232.56
2022-12-31T04:10:47.100Z,102195.94
2022-12-31T04:15:53.264Z,102197.47
2022-12-31T04:21:02.806Z,102183.38
2022-12-31T04:26:07.683Z,102179.03
2022-12-31T04:31:12.677Z,102180.66
2022-12-31T04:36:17.587Z,102176.25
2022-12-31T04:41:22.552Z,102171.84
2022-12-31T04:46:30.705Z,102163.97
2022-12-31T04:51:36.112Z,102168.38
2022-12-31T04:56:41.808Z,102171.09
2022-12-31T05:01:46.688Z,102172.25
2022-12-31T05:06:51.636Z,102162.03
2022-12-31T05:11:56.426Z,102148.41
2022-12-31T05:17:02.350Z,102147.03
2022-12-31T05:22:25.369Z,102142.09
2022-12-31T05:27:34.205Z,102133.81
2022-12-31T05:32:42.158Z,102122.28
2022-12-31T05:37:48.144Z,102127.00
2022-12-31T05:42:53.986Z,102116.28
2022-12-31T05:47:58.690Z,102117.56
2022-12-31T05:53:03.463Z,102145.09
2022-12-31T05:58:07.662Z,102122.97
2022-12-31T06:03:12.798Z,102120.22
2022-12-31T06:08:17.621Z,102112.09
2022-12-31T06:13:21.751Z,102117.97
2022-12-31T06:18:26.567Z,102115.16
2022-12-31T06:23:31.817Z,102112.44
2022-12-31T06:28:37.584Z,102107.91
2022-12-31T06:33:42.739Z,102100.84
2022-12-31T06:38:47.612Z,102107.75
2022-12-31T06:43:56.906Z,102137.28
2022-12-31T06:49:03.666Z,102120.81
2022-12-31T06:54:08.577Z,102122.78
2022-12-31T06:59:25.678Z,102124.19
2022-12-31T07:04:43.727Z,102124.03
2022-12-31T07:10:20.589Z,102134.47
2022-12-31T07:16:16.261Z,102138.84
2022-12-31T07:21:32.389Z,102137.84
2022-12-31T07:26:37.544Z,102142.06
2022-12-31T07:31:57.683Z,102153.09
2022-12-31T07:37:05.512Z,102148.47
2022-12-31T07:42:25.669Z,102158.53
2022-12-31T07:47:34.591Z,102159.78
2022-12-31T07:52:41.669Z,102172.44
2022-12-31T07:57:54.860Z,102170.97
2022-12-31T08:03:18.364Z,102174.66
2022-12-31T08:09:15.746Z,102177.66
2022-12-31T08:14:21.403Z,102189.31
2022-12-31T08:19:32.018Z,102207.88
2022-12-31T08:24:53.476Z,102214.28
2022-12-31T08:30:10.868Z,102206.88
2022-12-31T08:35:49.604Z,102207.31
2022-12-31T08:41:06.876Z,102212.91
2022-12-31T08:46:31.268Z,102205.50
2022-12-31T08:51:36.407Z,102215.44
2022-12-31T08:56:54.999Z,102218.44
2022-12-31T09:02:26.220Z,102230.94
2022-12-31T09:07:42.729Z,102228.72
2022-12-31T09:13:05.902Z,102243.78
2022-12-31T09:18:13.489Z,102235.50
2022-12-31T09:23:18.513Z,102243.59
2022-12-31T09:28:35.259Z,102271.50
2022-12-31T09:34:05.884Z,102269.72
2022-12-31T09:39:32.048Z,102274.34
2022-12-31T09:44:46.592Z,102279.06
2022-12-31T09:50:29.536Z,102283.78
2022-12-31T09:55:36.936Z,102297.91
2022-12-31T10:00:50.551Z,102299.94
2022-12-31T10:06:23.083Z,102295.06
2022-12-31T10:11:30.793Z,102299.56
2022-12-31T10:17:02.950Z,102306.72
2022-12-31T10:22:20.070Z,102310.47
2022-12-31T10:27:34.652Z,102314.06
2022-12-31T10:32:38.774Z,102327.13
2022-12-31T10:38:12.370Z,102336.75
2022-12-31T10:43:35.092Z,102353.31
2022-12-31T10:49:19.349Z,102366.44
2022-12-31T10:54:48.195Z,102366.56
2022-12-31T11:00:14.830Z,102372.72
2022-12-31T11:05:40.919Z,102374.63
2022-12-31T11:11:07.191Z,102391.16
2022-12-31T11:16:32.053Z,102392.94
2022-12-31T11:22:20.108Z,102389.50
2022-12-31T11:27:47.683Z,102400.72
2022-12-31T11:33:12.388Z,102413.00
2022-12-31T11:38:23.435Z,102412.38
2022-12-31T11:43:36.937Z,102455.63
2022-12-31T11:49:11.062Z,102429.84
2022-12-31T11:54:52.979Z,102449.78
2022-12-31T12:00:20.191Z,102442.09
2022-12-31T12:05:28.196Z,102451.88
2022-12-31T12:10:48.259Z,102463.31
2022-12-31T12:16:07.972Z,102467.03
2022-12-31T12:21:25.539Z,102479.44
2022-12-31T12:26:46.687Z,102489.13
2022-12-31T12:32:08.301Z,102497.94
2022-12-31T12:37:35.794Z,102501.53
2022-12-31T12:42:51.815Z,102495.63
2022-12-31T12:48:02.515Z,102506.88
2022-12-31T12:53:33.560Z,102527.56
2022-12-31T12:59:02.659Z,102521.56
2022-12-31T13:04:44.078Z,102513.06
2022-12-31T13:10:07.570Z,102512.25
2022-12-31T13:15:35.934Z,102514.03
2022-12-31T13:20:43.376Z,102525.19
2022-12-31T13:26:10.111Z,102523.50
2022-12-31T13:31:24.468Z,102539.81
2022-12-31T13:36:30.352Z,102541.56
2022-12-31T13:41:52.858Z,102536.41
2022-12-31T13:47:07.173Z,102544.16
2022-12-31T13:52:34.218Z,102573.41
2022-12-31T13:57:56.328Z,102590.59
2022-12-31T14:03:41.988Z,102539.06
2022-12-31T14:08:48.063Z,102552.81
2022-12-31T14:13:58.787Z,102542.53
2022-12-31T14:19:25.975Z,102545.97
2022-12-31T14:24:52.039Z,102554.56
2022-12-31T14:30:00.728Z,102570.91
2022-12-31T14:35:29.811Z,102559.72
2022-12-31T14:41:04.395Z,102562.25
2022-12-31T14:46:15.452Z,102545.94
2022-12-31T14:51:21.374Z,102542.47
2022-12-31T14:56:32.912Z,102544.19
2022-12-31T15:01:47.483Z,102539.94
2022-12-31T15:07:01.903Z,102539.94
2022-12-31T15:12:31.943Z,102549.44
2022-12-31T15:17:47.453Z,102540.03
2022-12-31T15:22:55.086Z,102545.22
2022-12-31T15:28:05.562Z,102544.41
2022-12-31T15:33:35.211Z,102542.66
2022-12-31T15:38:42.587Z,102556.41
2022-12-31T15:44:00.191Z,102550.38
2022-12-31T15:49:15.826Z,102564.06
2022-12-31T15:54:47.148Z,102547.75
2022-12-31T16:00:05.535Z,102564.06
2022-12-31T16:05:29.759Z,102561.44
2022-12-31T16:10:35.367Z,102565.78
2022-12-31T16:15:42.136Z,102570.97
2022-12-31T16:20:49.941Z,102566.69
2022-12-31T16:26:01.721Z,102565.84
2022-12-31T16:31:09.728Z,102614.81
2022-12-31T16:36:23.489Z,102589.91
2022-12-31T16:41:42.609Z,102584.75
2022-12-31T16:46:49.580Z,102590.75
2022-12-31T16:52:00.547Z,102589.03
2022-12-31T16:57:07.712Z,102591.63
2022-12-31T17:02:22.872Z,102598.50
2022-12-31T17:07:33.581Z,102605.38
2022-12-31T17:13:25.542Z,102613.09
2022-12-31T17:18:22.487Z,102613.06
2022-12-31T17:23:36.700Z,102612.22
2022-12-31T17:28:49.731Z,102612.22
2022-12-31T17:34:15.388Z,102621.66
2022-12-31T17:39:23.618Z,102629.38
2022-12-31T17:44:31.749Z,102626.78
2022-12-31T17:49:38.240Z,102655.06
2022-12-31T17:54:44.072Z,102623.31
2022-12-31T17:59:48.705Z,102625.91
2022-12-31T18:04:54.575Z,102665.38
2022-12-31T18:09:59.498Z,102636.19
2022-12-31T18:15:05.126Z,102637.06
2022-12-31T18:20:10.197Z,102637.06
2022-12-31T18:25:20.480Z,102632.78
2022-12-31T18:30:25.068Z,102636.22
2022-12-31T18:36:07.255Z,102630.22
2022-12-31T18:41:01.979Z,102638.78
2022-12-31T18:46:06.691Z,102627.63
2022-12-31T18:51:31.032Z,102633.59
2022-12-31T18:56:38.571Z,102643.84
2022-12-31T19:01:46.659Z,102644.69
2022-12-31T19:06:51.568Z,102649.84
2022-12-31T19:11:56.123Z,102641.25
2022-12-31T19:22:03.910Z,102648.16
2022-12-31T19:27:08.463Z,102654.16
2022-12-31T19:32:13.019Z,102651.63
2022-12-31T19:37:17.664Z,102651.63
2022-12-31T19:42:22.277Z,102659.31
2022-12-31T19:47:26.823Z,102657.56
2022-12-31T19:52:30.919Z,102658.44
2022-12-31T19:57:35.555Z,102662.69
2022-12-31T20:02:40.667Z,102661.84
2022-12-31T20:07:45.393Z,102657.56
2022-12-31T20:12:50.225Z,102654.09
2022-12-31T20:17:55.530Z,102660.06
2022-12-31T20:23:00.373Z,102658.41
2022-12-31T20:28:04.904Z,102660.97
2022-12-31T20:33:12.144Z,102663.53
2022-12-31T20:38:20.303Z,102659.25
2022-12-31T20:43:24.915Z,102668.69
2022-12-31T20:48:29.555Z,102675.53
2022-12-31T20:53:34.137Z,102670.31
2022-12-31T20:58:38.786Z,102666.81
2022-12-31T21:09:11.273Z,102672.69
2022-12-31T21:14:16.600Z,102671.78
2022-12-31T21:19:21.230Z,102682.06
2022-12-31T21:24:25.912Z,102686.34
2022-12-31T21:29:34.552Z,102692.34
2022-12-31T21:34:40.071Z,102700.13
2022-12-31T21:39:44.611Z,102707.84
2022-12-31T21:44:49.401Z,102717.25
2022-12-31T21:49:54.001Z,102711.25
2022-12-31T21:55:18.331Z,102708.66
2022-12-31T22:00:42.974Z,102715.50
2022-12-31T22:05:57.053Z,102725.66
2022-12-31T22:11:01.556Z,102733.34
2022-12-31T22:16:07.257Z,102740.09
2022-12-31T22:21:27.902Z,102742.59
2022-12-31T22:26:32.514Z,102755.28
2022-12-31T22:31:37.130Z,102765.50
2022-12-31T22:36:41.863Z,102754.34
2022-12-31T22:41:47.661Z,102769.66
2022-12-31T22:46:52.230Z,102772.22
2022-12-31T22:52:00.724Z,102794.50
2022-12-31T22:57:08.139Z,102791.13
2022-12-31T23:02:13.206Z,102792.78
2022-12-31T23:07:17.271Z,102797.81
2022-12-31T23:12:21.850Z,102802.81
2022-12-31T23:17:47.216Z,102794.97
2022-12-31T23:23:09.995Z,102805.94
2022-12-31T23:28:17.592Z,102805.78
2022-12-31T23:33:25.623Z,102816.03
2022-12-31T23:38:30.145Z,102818.59
2022-12-31T23:43:34.708Z,102844.25
2022-12-31T23:48:39.306Z,102841.78
2022-12-31T23:53:43.945Z,102848.69
2022-12-31T23:58:48.957Z,102835.06
